createdAt,value
2022-09-14T00:01:25.767Z,9.95
2022-09-14T00:03:55.080Z,9.96
2022-09-14T00:06:22.380Z,9.96
2022-09-14T00:08:51.075Z,9.99
2022-09-14T00:11:18.781Z,10.01
2022-09-14T00:13:46.207Z,10.02
2022-09-14T00:16:21.459Z,10.01
2022-09-14T00:18:52.499Z,9.98
2022-09-14T00:21:20.521Z,9.98
2022-09-14T00:23:48.037Z,10.04
2022-09-14T00:26:16.698Z,10.03
2022-09-14T00:28:47.961Z,10.05
2022-09-14T00:31:15.728Z,10.08
2022-09-14T00:33:43.959Z,10.05
2022-09-14T00:36:15.371Z,10.03
2022-09-14T00:38:43.184Z,10.00
2022-09-14T00:41:15.266Z,10.00
2022-09-14T00:43:51.576Z,10.01
2022-09-14T00:46:18.831Z,10.00
2022-09-14T00:48:46.095Z,10.08
2022-09-14T00:51:14.396Z,10.08
2022-09-14T00:53:42.139Z,10.07
2022-09-14T00:56:09.707Z,10.04
2022-09-14T00:58:37.167Z,10.01
2022-09-14T01:01:04.678Z,10.04
2022-09-14T01:03:32.009Z,10.02
2022-09-14T01:06:09.040Z,10.00
2022-09-14T01:08:41.675Z,10.01
2022-09-14T01:11:18.291Z,10.02
2022-09-14T01:14:03.844Z,10.00
2022-09-14T01:16:36.575Z,9.99
2022-09-14T01:19:14.953Z,9.97
2022-09-14T01:21:42.899Z,9.96
2022-09-14T01:24:22.318Z,9.96
2022-09-14T01:27:01.917Z,9.98
2022-09-14T01:29:29.756Z,9.99
2022-09-14T01:31:56.798Z,9.98
2022-09-14T01:34:46.985Z,9.96
2022-09-14T01:37:19.645Z,9.98
2022-09-14T01:39:50.619Z,10.00
2022-09-14T01:42:18.851Z,9.96
2022-09-14T01:44:48.237Z,9.94
2022-09-14T01:47:28.868Z,9.95
2022-09-14T01:49:58.631Z,9.98
2022-09-14T01:52:28.696Z,9.98
2022-09-14T01:54:59.233Z,9.98
2022-09-14T01:57:48.031Z,9.98
2022-09-14T02:00:18.282Z,9.99
2022-09-14T02:02:52.696Z,10.00
2022-09-14T02:05:25.168Z,10.01
2022-09-14T02:07:52.369Z,9.98
2022-09-14T02:10:20.040Z,9.99
2022-09-14T02:12:47.320Z,10.00
2022-09-14T02:15:15.505Z,9.98
2022-09-14T02:17:43.226Z,9.96
2022-09-14T02:20:15.380Z,9.94
2022-09-14T02:22:42.726Z,9.96
2022-09-14T02:25:10.085Z,9.95
2022-09-14T02:27:37.981Z,9.94
2022-09-14T02:30:05.265Z,9.90
2022-09-14T02:32:32.457Z,9.85
2022-09-14T02:35:18.650Z,9.83
2022-09-14T02:37:54.968Z,9.80
2022-09-14T02:40:36.335Z,9.79
2022-09-14T02:43:03.557Z,9.80
2022-09-14T02:45:49.654Z,9.83
2022-09-14T02:48:17.219Z,9.79
2022-09-14T02:50:50.673Z,9.79
2022-09-14T02:53:18.036Z,9.77
2022-09-14T02:55:48.745Z,9.76
2022-09-14T02:58:16.496Z,9.78
2022-09-14T03:00:45.613Z,9.76
2022-09-14T03:03:13.896Z,9.77
2022-09-14T03:05:41.725Z,9.79
2022-09-14T03:08:10.578Z,9.79
2022-09-14T03:10:38.044Z,9.76
2022-09-14T03:13:05.689Z,9.72
2022-09-14T03:15:33.243Z,9.71
2022-09-14T03:18:00.323Z,9.70
2022-09-14T03:20:28.686Z,9.69
2022-09-14T03:22:56.094Z,9.70
2022-09-14T03:25:23.397Z,9.69
2022-09-14T03:27:51.703Z,9.70
2022-09-14T03:30:19.085Z,9.74
2022-09-14T03:32:46.263Z,9.77
2022-09-14T03:35:14.199Z,9.79
2022-09-14T03:37:42.449Z,9.82
2022-09-14T03:40:10.570Z,9.81
2022-09-14T03:42:41.912Z,9.80
2022-09-14T03:45:09.493Z,9.77
2022-09-14T03:47:36.534Z,9.76
2022-09-14T03:50:03.904Z,9.77
2022-09-14T03:52:31.265Z,9.77
2022-09-14T03:54:58.420Z,9.78
2022-09-14T03:57:25.640Z,9.80
2022-09-14T03:59:52.935Z,9.80
2022-09-14T04:02:20.836Z,9.80
2022-09-14T04:04:48.555Z,9.82
2022-09-14T04:07:15.974Z,9.84
2022-09-14T04:09:43.572Z,9.89
2022-09-14T04:12:10.810Z,9.91
2022-09-14T04:14:37.985Z,9.95
2022-09-14T04:17:05.222Z,9.94
2022-09-14T04:19:37.697Z,9.97
2022-09-14T04:22:05.546Z,10.00
2022-09-14T04:24:32.868Z,10.09
2022-09-14T04:27:00.501Z,10.18
2022-09-14T04:29:30.615Z,10.22
2022-09-14T04:31:58.170Z,10.31
2022-09-14T04:34:25.975Z,10.36
2022-09-14T04:36:53.493Z,10.35
2022-09-14T04:39:20.719Z,10.41
2022-09-14T04:41:48.682Z,10.48
2022-09-14T04:44:16.066Z,10.50
2022-09-14T04:46:46.636Z,10.53
2022-09-14T04:49:15.587Z,10.55
2022-09-14T04:51:42.850Z,10.57
2022-09-14T04:54:10.268Z,10.58
2022-09-14T04:56:37.797Z,10.62
2022-09-14T04:59:05.898Z,10.70
2022-09-14T05:01:34.941Z,10.79
2022-09-14T05:04:02.678Z,10.93
2022-09-14T05:06:32.003Z,11.07
2022-09-14T05:09:00.205Z,11.17
2022-09-14T05:11:29.287Z,11.20
2022-09-14T05:13:57.445Z,11.13
2022-09-14T05:16:26.488Z,11.10
2022-09-14T05:18:55.115Z,11.04
2022-09-14T05:21:22.997Z,10.99
2022-09-14T05:24:15.024Z,11.02
2022-09-14T05:26:43.685Z,11.01
2022-09-14T05:29:12.727Z,10.96
2022-09-14T05:31:39.942Z,11.01
2022-09-14T05:34:07.326Z,11.04
2022-09-14T05:36:35.843Z,11.10
2022-09-14T05:39:03.580Z,11.18
2022-09-14T05:41:30.935Z,11.24
2022-09-14T05:44:01.124Z,11.31
2022-09-14T05:46:28.534Z,11.35
2022-09-14T05:48:55.681Z,11.29
2022-09-14T05:51:24.966Z,11.28
2022-09-14T05:53:53.866Z,11.24
2022-09-14T05:56:21.828Z,11.26
2022-09-14T05:58:49.293Z,11.28
2022-09-14T06:01:16.465Z,11.28
2022-09-14T06:03:44.101Z,11.35
2022-09-14T06:06:12.341Z,11.40
2022-09-14T06:08:39.709Z,11.34
2022-09-14T06:11:08.394Z,11.34
2022-09-14T06:13:36.177Z,11.47
2022-09-14T06:16:04.374Z,11.51
2022-09-14T06:18:32.478Z,11.54
2022-09-14T06:20:59.892Z,11.56
2022-09-14T06:23:28.976Z,11.54
2022-09-14T06:25:56.817Z,11.52
2022-09-14T06:28:24.913Z,11.53
2022-09-14T06:30:52.535Z,11.52
2022-09-14T06:33:20.849Z,11.56
2022-09-14T06:35:58.671Z,11.72
2022-09-14T06:38:26.294Z,11.81
2022-09-14T06:41:00.931Z,11.89
2022-09-14T06:43:29.468Z,11.92
2022-09-14T06:46:00.569Z,11.96
2022-09-14T06:48:28.838Z,12.04
2022-09-14T06:50:56.158Z,12.08
2022-09-14T06:53:23.449Z,12.16
2022-09-14T06:55:51.250Z,12.16
2022-09-14T06:58:19.009Z,12.16
2022-09-14T07:00:46.407Z,12.18
2022-09-14T07:03:16.072Z,12.13
2022-09-14T07:05:43.754Z,12.01
2022-09-14T07:08:12.432Z,11.91
2022-09-14T07:10:40.300Z,11.81
2022-09-14T07:13:07.665Z,11.65
2022-09-14T07:15:34.992Z,11.55
2022-09-14T07:18:02.653Z,11.49
2022-09-14T07:20:30.229Z,11.45
2022-09-14T07:22:57.443Z,11.46
2022-09-14T07:25:24.951Z,11.48
2022-09-14T07:27:52.125Z,11.41
2022-09-14T07:30:19.345Z,11.31
2022-09-14T07:32:46.647Z,11.28
2022-09-14T07:35:13.930Z,11.30
2022-09-14T07:37:41.065Z,11.44
2022-09-14T07:40:10.026Z,11.50
2022-09-14T07:42:38.132Z,11.55
2022-09-14T07:45:05.922Z,11.57
2022-09-14T07:47:33.173Z,11.61
2022-09-14T07:50:00.723Z,11.70
2022-09-14T07:52:27.953Z,11.77
2022-09-14T07:54:56.381Z,11.79
2022-09-14T07:57:39.377Z,11.84
2022-09-14T08:00:11.861Z,11.97
2022-09-14T08:02:39.093Z,12.13
2022-09-14T08:05:06.397Z,12.26
2022-09-14T08:07:33.736Z,12.12
2022-09-14T08:10:02.301Z,12.09
2022-09-14T08:12:30.039Z,12.16
2022-09-14T08:14:57.788Z,12.39
2022-09-14T08:17:25.331Z,12.57
2022-09-14T08:19:52.809Z,12.76
2022-09-14T08:22:20.828Z,12.98
2022-09-14T08:24:47.989Z,13.40
2022-09-14T08:27:17.254Z,13.70
2022-09-14T08:29:44.504Z,13.74
2022-09-14T08:32:12.861Z,13.53
2022-09-14T08:34:39.962Z,13.41
2022-09-14T08:37:07.434Z,13.21
2022-09-14T08:39:34.426Z,13.13
2022-09-14T08:42:02.691Z,13.07
2022-09-14T08:44:31.858Z,13.05
2022-09-14T08:47:03.353Z,13.26
2022-09-14T08:49:37.125Z,13.38
2022-09-14T08:52:04.932Z,13.36
2022-09-14T08:54:33.505Z,13.31
2022-09-14T08:57:07.517Z,13.28
2022-09-14T08:59:37.484Z,13.14
2022-09-14T09:02:18.425Z,13.03
2022-09-14T09:04:57.579Z,12.90
2022-09-14T09:07:43.174Z,12.79
2022-09-14T09:10:12.293Z,12.64
2022-09-14T09:12:51.393Z,12.52
2022-09-14T09:15:21.950Z,12.44
2022-09-14T09:17:53.324Z,12.43
2022-09-14T09:20:23.712Z,12.50
2022-09-14T09:22:55.252Z,12.48
2022-09-14T09:25:24.099Z,12.46
2022-09-14T09:27:51.606Z,12.47
2022-09-14T09:30:18.797Z,12.55
2022-09-14T09:32:46.571Z,12.75
2022-09-14T09:35:37.244Z,13.05
2022-09-14T09:38:17.205Z,13.24
2022-09-14T09:40:47.359Z,13.31
2022-09-14T09:43:28.699Z,13.21
2022-09-14T09:46:01.763Z,13.05
2022-09-14T09:48:33.739Z,12.96
2022-09-14T09:51:03.845Z,12.84
2022-09-14T09:53:32.821Z,12.82
2022-09-14T09:56:00.370Z,12.77
2022-09-14T09:58:28.173Z,12.77
2022-09-14T10:00:57.217Z,12.39
2022-09-14T10:03:29.400Z,12.84
2022-09-14T10:06:02.172Z,12.84
2022-09-14T10:08:35.060Z,12.80
2022-09-14T10:11:03.472Z,12.89
2022-09-14T10:13:38.558Z,12.92
2022-09-14T10:16:16.600Z,12.88
2022-09-14T10:18:48.837Z,12.88
2022-09-14T10:21:18.062Z,13.05
2022-09-14T10:23:45.602Z,13.15
2022-09-14T10:26:13.023Z,13.44
2022-09-14T10:28:42.424Z,13.64
2022-09-14T10:31:15.712Z,13.72
2022-09-14T10:33:43.229Z,13.65
2022-09-14T10:36:17.968Z,13.61
2022-09-14T10:38:46.130Z,13.56
2022-09-14T10:41:32.196Z,13.52
2022-09-14T10:44:05.724Z,13.43
2022-09-14T10:46:51.843Z,13.41
2022-09-14T10:49:26.062Z,13.37
2022-09-14T10:51:53.902Z,13.37
2022-09-14T10:54:21.443Z,13.34
2022-09-14T10:56:51.609Z,13.27
2022-09-14T10:59:19.768Z,13.16
2022-09-14T11:02:04.337Z,13.08
2022-09-14T11:05:07.516Z,13.02
2022-09-14T11:07:39.095Z,12.98
2022-09-14T11:10:09.443Z,13.06
2022-09-14T11:12:48.881Z,13.14
2022-09-14T11:15:29.004Z,13.34
2022-09-14T11:18:11.317Z,13.56
2022-09-14T11:20:51.258Z,13.69
2022-09-14T11:23:24.506Z,13.77
2022-09-14T11:25:56.772Z,13.65
2022-09-14T11:28:27.995Z,13.55
2022-09-14T11:30:56.750Z,13.16
2022-09-14T11:33:26.912Z,13.28
2022-09-14T11:36:00.974Z,13.25
2022-09-14T11:38:42.009Z,13.29
2022-09-14T11:41:12.285Z,13.43
2022-09-14T11:43:48.759Z,13.62
2022-09-14T11:46:16.206Z,13.75
2022-09-14T11:48:46.192Z,13.77
2022-09-14T11:51:16.002Z,13.79
2022-09-14T11:53:43.728Z,13.89
2022-09-14T11:56:23.619Z,14.02
2022-09-14T11:58:51.059Z,14.11
2022-09-14T12:01:44.606Z,14.09
2022-09-14T12:04:15.881Z,13.92
2022-09-14T12:06:50.516Z,13.81
2022-09-14T12:09:17.663Z,13.76
2022-09-14T12:11:45.594Z,13.85
2022-09-14T12:14:14.269Z,13.92
2022-09-14T12:17:00.114Z,14.01
2022-09-14T12:19:27.625Z,14.11
2022-09-14T12:21:55.372Z,14.16
2022-09-14T12:24:23.404Z,14.11
2022-09-14T12:26:50.752Z,14.09
2022-09-14T12:29:27.036Z,14.33
2022-09-14T12:31:55.125Z,14.56
2022-09-14T12:34:23.526Z,14.66
2022-09-14T12:36:50.499Z,14.56
2022-09-14T12:39:28.907Z,14.54
2022-09-14T12:41:56.092Z,14.53
2022-09-14T12:44:34.130Z,14.60
2022-09-14T12:47:19.910Z,14.72
2022-09-14T12:49:49.011Z,14.83
2022-09-14T12:52:42.762Z,14.85
2022-09-14T12:55:31.482Z,14.88
2022-09-14T12:58:06.147Z,14.96
2022-09-14T13:00:45.257Z,14.95
2022-09-14T13:03:47.821Z,14.87
2022-09-14T13:06:15.249Z,14.77
2022-09-14T13:08:46.420Z,14.65
2022-09-14T13:11:24.324Z,14.40
2022-09-14T13:13:51.705Z,14.31
2022-09-14T13:16:23.091Z,14.29
2022-09-14T13:18:50.473Z,14.31
2022-09-14T13:21:22.624Z,14.24
2022-09-14T13:23:50.040Z,14.07
2022-09-14T13:26:22.071Z,13.99
2022-09-14T13:28:52.866Z,13.97
2022-09-14T13:31:28.024Z,14.00
2022-09-14T13:33:55.994Z,13.44
2022-09-14T13:36:25.550Z,13.85
2022-09-14T13:38:53.870Z,13.88
2022-09-14T13:41:25.150Z,13.88
2022-09-14T13:43:55.308Z,13.80
2022-09-14T13:46:24.394Z,13.76
2022-09-14T13:48:52.489Z,13.72
2022-09-14T13:51:25.334Z,13.71
2022-09-14T13:53:54.082Z,13.64
2022-09-14T13:56:21.191Z,13.58
2022-09-14T13:58:50.163Z,13.55
2022-09-14T14:01:25.547Z,13.54
2022-09-14T14:03:53.213Z,13.52
2022-09-14T14:06:22.057Z,13.50
2022-09-14T14:09:09.128Z,13.52
2022-09-14T14:11:41.808Z,13.53
2022-09-14T14:14:30.783Z,13.57
2022-09-14T14:17:13.987Z,13.51
2022-09-14T14:19:41.510Z,13.43
2022-09-14T14:22:14.659Z,13.37
2022-09-14T14:25:09.197Z,13.34
2022-09-14T14:27:30.328Z,13.38
2022-09-14T14:29:58.542Z,13.43
2022-09-14T14:32:26.053Z,13.44
2022-09-14T14:34:53.868Z,13.47
2022-09-14T14:37:21.976Z,13.43
2022-09-14T14:39:49.962Z,13.34
2022-09-14T14:42:17.330Z,13.27
2022-09-14T14:44:45.318Z,13.22
2022-09-14T14:47:13.488Z,13.13
2022-09-14T14:49:40.516Z,13.12
2022-09-14T14:52:07.746Z,13.10
2022-09-14T14:54:35.319Z,13.08
2022-09-14T14:57:02.670Z,13.03
2022-09-14T14:59:31.228Z,12.99
2022-09-14T15:01:58.637Z,12.99
2022-09-14T15:04:25.950Z,13.05
2022-09-14T15:06:53.877Z,13.07
2022-09-14T15:09:23.065Z,13.05
2022-09-14T15:11:51.106Z,13.04
2022-09-14T15:14:19.846Z,13.03
2022-09-14T15:16:49.047Z,13.06
2022-09-14T15:19:16.763Z,13.01
2022-09-14T15:21:44.117Z,12.98
2022-09-14T15:24:11.462Z,12.97
2022-09-14T15:26:38.862Z,12.95
2022-09-14T15:29:06.548Z,12.95
2022-09-14T15:31:33.781Z,12.94
2022-09-14T15:34:00.989Z,12.91
2022-09-14T15:36:40.914Z,12.87
2022-09-14T15:39:10.358Z,12.84
2022-09-14T15:41:37.939Z,12.83
2022-09-14T15:44:05.672Z,12.80
2022-09-14T15:46:33.549Z,12.78
2022-09-14T15:49:04.750Z,12.74
2022-09-14T15:51:33.914Z,12.71
2022-09-14T15:54:01.852Z,12.71
2022-09-14T15:56:29.406Z,12.71
2022-09-14T15:59:00.158Z,12.71
2022-09-14T16:01:28.149Z,12.72
2022-09-14T16:04:01.667Z,12.71
2022-09-14T16:06:29.383Z,12.69
2022-09-14T16:08:57.806Z,12.69
2022-09-14T16:11:25.452Z,12.69
2022-09-14T16:13:54.154Z,12.68
2022-09-14T16:16:21.498Z,12.69
2022-09-14T16:18:50.417Z,12.69
2022-09-14T16:21:22.461Z,12.68
2022-09-14T16:23:51.130Z,12.66
2022-09-14T16:26:20.870Z,12.64
2022-09-14T16:28:49.230Z,12.64
2022-09-14T16:31:20.947Z,12.64
2022-09-14T16:33:49.697Z,12.65
2022-09-14T16:36:19.921Z,12.65
2022-09-14T16:38:47.262Z,12.64
2022-09-14T16:41:15.183Z,12.65
2022-09-14T16:43:42.801Z,12.65
2022-09-14T16:46:14.643Z,12.68
2022-09-14T16:48:43.914Z,12.69
2022-09-14T16:51:11.993Z,12.67
2022-09-14T16:53:41.286Z,12.64
2022-09-14T16:56:09.806Z,12.64
2022-09-14T16:58:37.888Z,12.65
2022-09-14T17:01:08.713Z,12.64
2022-09-14T17:03:36.790Z,12.63
2022-09-14T17:06:04.907Z,12.62
2022-09-14T17:08:33.163Z,12.62
2022-09-14T17:11:00.621Z,12.61
2022-09-14T17:13:28.214Z,12.63
2022-09-14T17:16:06.046Z,12.68
2022-09-14T17:18:34.165Z,12.66
2022-09-14T17:21:03.174Z,12.65
2022-09-14T17:23:30.623Z,12.61
2022-09-14T17:25:58.058Z,12.56
2022-09-14T17:28:26.721Z,12.56
2022-09-14T17:30:55.504Z,12.54
2022-09-14T17:33:24.388Z,12.57
2022-09-14T17:35:52.709Z,12.58
2022-09-14T17:38:21.913Z,12.55
2022-09-14T17:40:49.639Z,12.54
2022-09-14T17:43:19.330Z,12.56
2022-09-14T17:45:55.154Z,12.09
2022-09-14T17:48:22.924Z,12.55
2022-09-14T17:50:50.196Z,12.53
2022-09-14T17:53:17.550Z,12.53
2022-09-14T17:55:44.910Z,12.53
2022-09-14T17:58:14.442Z,12.55
2022-09-14T18:00:46.415Z,12.61
2022-09-14T18:03:14.143Z,12.57
2022-09-14T18:05:41.750Z,12.55
2022-09-14T18:08:11.729Z,12.49
2022-09-14T18:10:39.332Z,12.49
2022-09-14T18:13:06.399Z,12.49
2022-09-14T18:15:38.218Z,12.43
2022-09-14T18:18:07.503Z,12.42
2022-09-14T18:20:35.225Z,12.44
2022-09-14T18:23:02.329Z,12.48
2022-09-14T18:25:30.076Z,12.51
2022-09-14T18:27:57.922Z,12.48
2022-09-14T18:30:25.386Z,12.38
2022-09-14T18:32:53.046Z,12.31
2022-09-14T18:35:21.057Z,12.25
2022-09-14T18:37:48.119Z,12.22
2022-09-14T18:40:20.013Z,12.19
2022-09-14T18:42:48.828Z,12.17
2022-09-14T18:45:16.157Z,12.14
2022-09-14T18:47:44.350Z,12.07
2022-09-14T18:50:12.015Z,12.04
2022-09-14T18:52:39.235Z,11.99
2022-09-14T18:55:09.936Z,11.98
2022-09-14T18:57:37.713Z,11.94
2022-09-14T19:00:05.319Z,11.94
2022-09-14T19:02:32.567Z,12.03
2022-09-14T19:05:00.087Z,12.11
2022-09-14T19:07:27.834Z,12.16
2022-09-14T19:09:58.900Z,12.13
2022-09-14T19:12:26.482Z,12.16
2022-09-14T19:14:54.053Z,11.95
2022-09-14T19:17:21.405Z,12.21
2022-09-14T19:19:49.664Z,12.21
2022-09-14T19:22:17.189Z,12.18
2022-09-14T19:24:44.643Z,12.15
2022-09-14T19:27:12.161Z,12.15
2022-09-14T19:29:39.498Z,12.17
2022-09-14T19:32:06.806Z,12.22
2022-09-14T19:34:34.098Z,12.26
2022-09-14T19:37:01.321Z,12.20
2022-09-14T19:39:28.925Z,12.16
2022-09-14T19:41:56.928Z,12.19
2022-09-14T19:44:24.383Z,12.18
2022-09-14T19:46:51.545Z,12.17
2022-09-14T19:49:23.955Z,12.12
2022-09-14T19:51:51.433Z,12.13
2022-09-14T19:54:18.917Z,12.13
2022-09-14T19:56:46.888Z,12.09
2022-09-14T19:59:14.770Z,12.08
2022-09-14T20:01:42.334Z,12.06
2022-09-14T20:04:11.004Z,12.04
2022-09-14T20:06:40.585Z,12.04
2022-09-14T20:09:09.426Z,12.01
2022-09-14T20:11:38.156Z,12.01
2022-09-14T20:14:06.078Z,12.02
2022-09-14T20:16:35.264Z,12.04
2022-09-14T20:19:04.721Z,12.05
2022-09-14T20:21:31.923Z,12.05
2022-09-14T20:24:17.708Z,12.03
2022-09-14T20:26:46.466Z,12.09
2022-09-14T20:29:14.461Z,12.15
2022-09-14T20:31:41.579Z,12.19
2022-09-14T20:34:09.246Z,12.15
2022-09-14T20:36:36.741Z,12.14
2022-09-14T20:39:04.129Z,12.11
2022-09-14T20:41:34.534Z,12.09
2022-09-14T20:44:02.364Z,12.13
2022-09-14T20:46:32.009Z,12.11
2022-09-14T20:48:59.363Z,12.07
2022-09-14T20:51:26.797Z,12.07
2022-09-14T20:53:56.290Z,12.12
2022-09-14T20:56:26.865Z,12.11
2022-09-14T20:58:58.406Z,12.07
2022-09-14T21:01:27.656Z,12.05
2022-09-14T21:03:55.528Z,11.69
2022-09-14T21:06:24.141Z,12.03
2022-09-14T21:08:52.047Z,12.03
2022-09-14T21:11:26.634Z,12.07
2022-09-14T21:13:55.313Z,12.08
2022-09-14T21:16:24.948Z,12.12
2022-09-14T21:18:53.883Z,12.14
2022-09-14T21:21:21.490Z,12.10
2022-09-14T21:23:48.978Z,12.10
2022-09-14T21:26:16.753Z,12.13
2022-09-14T21:28:44.033Z,12.18
2022-09-14T21:31:12.642Z,12.18
2022-09-14T21:33:41.090Z,12.14
2022-09-14T21:36:19.173Z,12.10
2022-09-14T21:38:50.178Z,12.04
2022-09-14T21:41:18.739Z,11.98
2022-09-14T21:43:46.293Z,11.91
2022-09-14T21:46:13.823Z,11.84
2022-09-14T21:48:41.079Z,11.80
2022-09-14T21:51:15.270Z,11.81
2022-09-14T21:53:44.665Z,11.83
2022-09-14T21:56:11.924Z,11.84
2022-09-14T21:58:39.423Z,11.88
2022-09-14T22:01:06.696Z,11.90
2022-09-14T22:03:34.222Z,11.91
2022-09-14T22:06:03.008Z,11.96
2022-09-14T22:08:31.333Z,11.96
2022-09-14T22:11:02.439Z,11.96
2022-09-14T22:13:30.379Z,11.99
2022-09-14T22:15:57.821Z,12.01
2022-09-14T22:18:25.418Z,12.00
2022-09-14T22:20:56.708Z,11.96
2022-09-14T22:23:24.440Z,11.96
2022-09-14T22:25:51.915Z,11.90
2022-09-14T22:28:19.777Z,11.84
2022-09-14T22:30:55.005Z,11.82
2022-09-14T22:33:23.578Z,11.84
2022-09-14T22:35:59.018Z,11.88
2022-09-14T22:38:27.777Z,11.92
2022-09-14T22:40:57.380Z,11.93
2022-09-14T22:43:24.981Z,11.91
2022-09-14T22:45:52.641Z,11.93
2022-09-14T22:48:20.978Z,11.93
2022-09-14T22:50:48.821Z,11.91
2022-09-14T22:53:16.627Z,11.87
2022-09-14T22:55:44.972Z,11.88
2022-09-14T22:58:14.244Z,11.89
2022-09-14T23:00:42.361Z,11.88
2022-09-14T23:03:10.259Z,11.89
2022-09-14T23:05:37.935Z,11.90
2022-09-14T23:08:06.246Z,11.90
2022-09-14T23:10:37.285Z,11.95
2022-09-14T23:13:04.690Z,11.96
2022-09-14T23:15:32.377Z,11.97
2022-09-14T23:17:59.507Z,12.00
2022-09-14T23:20:26.804Z,11.98
2022-09-14T23:22:54.455Z,11.93
2022-09-14T23:25:21.920Z,11.92
2022-09-14T23:27:49.263Z,11.92
2022-09-14T23:30:16.942Z,11.96
2022-09-14T23:32:44.121Z,11.97
2022-09-14T23:35:11.813Z,11.97
2022-09-14T23:37:39.456Z,11.96
2022-09-14T23:40:07.078Z,11.94
2022-09-14T23:42:34.499Z,11.94
2022-09-14T23:45:01.941Z,11.93
2022-09-14T23:47:30.451Z,11.96
2022-09-14T23:49:58.129Z,11.97
2022-09-14T23:52:25.491Z,12.00
2022-09-14T23:54:52.911Z,12.03
2022-09-14T23:57:20.639Z,12.05
2022-09-14T23:59:48.170Z,12.09
